Terminal Aerodrome Forecast
Issued by NWS

Home | Current Version | Previous Version | Text Only | Print | Product List | Glossary On
Versions: 1 2 3 4 5 6 7 8 9 10 11 12 13 14 15 16 17 18
000
FTUS43 KGRB 221738
TAFRHI
TAF
KRHI 221738Z 2218/2318 04013G21KT 1 1/2SM -SN OVC006 WS020/06045KT
      TEMPO 2218/2222 1/2SM SN OVC002
     FM230400 02012G21KT 4SM -SN OVC008 WS020/04045KT
     FM230700 01011G21KT 5SM -SN OVC011 WS020/03040KT
     FM231300 36012G22KT P6SM OVC012 WS020/02040KT=

USA.gov is the U.S. government's official web portal to all federal, state and local government web resources and services.